Terminal Aerodrome Forecast
Issued by NWS Blacksburg, VA

Home | Current Version | Previous Version | Text Only | Print | Product List | Glossary On
Versions: 1 2 3 4 5 6 7 8 9 10 11 12 13 14 15 16 17 18 19 20 21 22 23 24 25 26 27 28 29 30 31 32 33 34 35 36 37 38 39 40 41 42 43 44 45 46 47 48 49 50
000
FTUS41 KRNK 050310 AAA
TAFBLF
TAF AMD
KBLF 050310Z 0503/0524 00000KT P6SM SCT025 BKN120
     FM050700 VRB03KT 4SM BR BKN004
      TEMPO 0510/0512 1/2SM FG VV003
     FM051500 18005KT P6SM -RA OVC015=

USA.gov is the U.S. government's official web portal to all federal, state and local government web resources and services.